Terminal Aerodrome Forecast
Issued by NWS Rapid City, SD

Home | Current Version | Previous Version | Graphics & Text | Print | Product List | Glossary On
Versions: 1 2 3 4 5 6 7 8 9 10 11 12
000
FTUS43 KUNR 210015 AAA
TAFRAP
TAF AMD
KRAP 210015Z 2100/2124 34015KT P6SM VCTS BKN150CB
     FM210200 01006KT P6SM BKN150
     FM210600 36012G18KT P6SM FEW100=

USA.gov is the U.S. government's official web portal to all federal, state and local government web resources and services.